Terminal Aerodrome Forecast
Issued by NWS

Home | Current Version | Previous Version | Text Only | Print | Product List | Glossary On
Versions: 1 2 3 4 5 6 7 8 9 10 11 12 13 14 15 16 17 18 19 20 21 22 23 24 25 26
000
FTUS43 KDLH 131700
TAFBRD
TAF
KBRD 131740Z 1318/1418 20012KT P6SM BKN050
     FM140400 17005KT P6SM BKN060 WS015/21035KT
     FM140800 22006KT P6SM FEW030 BKN050
     FM141500 26007KT P6SM BKN100=

USA.gov is the U.S. government's official web portal to all federal, state and local government web resources and services.